Time;durP1;ratioP1;P1;durP2;ratioP2;P2;SDS_P1;SDS_P2;PMS_P1;PMS_P2;Temp;Humidity;BMP_temperature;BMP_pressure;BME280_temperature;BME280_humidity;BME280_pressure;Samples;Min_cycle;Max_cycle;Signal;HPM_P1;HPM_P2
2022/08/16 00:02:12;;;;;;;10.63;7.10;;;22.40;99.50;;;;;;5139312;27;20089;-79
2022/08/16 00:04:38;;;;;;;8.60;6.72;;;22.40;99.30;;;;;;5109877;28;20405;-79
2022/08/16 00:07:04;;;;;;;10.30;6.65;;;22.40;99.20;;;;;;5113922;27;20109;-79
2022/08/16 00:09:30;;;;;;;8.98;6.80;;;22.40;99.10;;;;;;5112056;28;20456;-79
2022/08/16 00:11:56;;;;;;;11.20;7.00;;;22.40;98.90;;;;;;5129049;27;20125;-79
2022/08/16 00:14:25;;;;;;;8.48;6.70;;;22.40;98.90;;;;;;5114083;28;20123;-79
2022/08/16 00:16:51;;;;;;;12.82;10.88;;;22.50;98.70;;;;;;5127448;27;20035;-79
2022/08/16 00:19:20;;;;;;;15.93;10.70;;;22.50;99.30;;;;;;5117645;27;20026;-79
2022/08/16 00:21:46;;;;;;;11.63;9.27;;;22.40;99.90;;;;;;5130539;27;20389;-79
2022/08/16 00:24:13;;;;;;;7.97;6.65;;;22.40;99.90;;;;;;5119040;27;20030;-79
2022/08/16 00:26:43;;;;;;;8.30;6.65;;;22.30;99.90;;;;;;5127328;28;20126;-79
2022/08/16 00:29:09;;;;;;;8.45;6.38;;;22.30;99.90;;;;;;5099238;27;20043;-79
2022/08/16 00:31:35;;;;;;;8.45;7.07;;;22.30;99.60;;;;;;5101742;27;20070;-79
2022/08/16 00:34:01;;;;;;;9.00;7.03;;;22.30;99.40;;;;;;5135914;27;20046;-79
2022/08/16 00:36:27;;;;;;;10.45;7.85;;;22.30;99.90;;;;;;5136922;27;20370;-79
2022/08/16 00:38:53;;;;;;;9.07;7.20;;;22.30;99.90;;;;;;5119012;27;20043;-79
2022/08/16 00:41:19;;;;;;;12.25;9.52;;;22.30;99.90;;;;;;5122191;27;20488;-79
2022/08/16 00:43:45;;;;;;;12.77;8.20;;;22.20;99.90;;;;;;5122344;27;20479;-79
2022/08/16 00:46:32;;;;;;;9.45;6.47;;;22.10;99.90;;;;;;5122656;27;20507;-79
2022/08/16 00:48:57;;;;;;;9.52;6.53;;;22.20;99.90;;;;;;5122601;27;20042;-79
2022/08/16 00:51:25;;;;;;;9.55;6.97;;;22.20;99.90;;;;;;5139368;27;20396;-79
2022/08/16 00:53:52;;;;;;;8.70;6.20;;;22.30;99.90;;;;;;5107919;27;20034;-79
2022/08/16 00:56:23;;;;;;;9.50;6.40;;;22.30;99.70;;;;;;5137399;27;20039;-79
2022/08/16 00:58:49;;;;;;;9.18;6.40;;;22.30;99.50;;;;;;5136286;27;20035;-79
2022/08/16 01:01:17;;;;;;;12.75;11.40;;;22.30;99.30;;;;;;5139445;27;20031;-79
2022/08/16 01:03:47;;;;;;;10.75;9.35;;;22.30;99.70;;;;;;5123407;27;20043;-79
2022/08/16 01:06:17;;;;;;;8.75;6.50;;;22.20;99.90;;;;;;5126978;27;20072;-79
2022/08/16 01:08:45;;;;;;;13.82;10.93;;;22.10;99.90;;;;;;5139095;27;20110;-79
2022/08/16 01:11:13;;;;;;;15.93;12.88;;;22.10;99.90;;;;;;5114860;27;20046;-79
2022/08/16 01:13:39;;;;;;;8.95;6.63;;;22.00;99.90;;;;;;5114822;27;20043;-79
2022/08/16 01:16:17;;;;;;;8.90;6.53;;;21.90;99.90;;;;;;5138941;27;20125;-79
2022/08/16 01:18:47;;;;;;;15.32;12.55;;;21.80;99.90;;;;;;5121900;27;20417;-79
2022/08/16 01:21:33;;;;;;;8.38;6.65;;;21.70;99.90;;;;;;5128766;27;20456;-79
2022/08/16 01:24:02;;;;;;;9.93;6.65;;;21.70;99.90;;;;;;5137340;27;20035;-79
2022/08/16 01:26:30;;;;;;;12.38;9.20;;;21.70;99.90;;;;;;5111420;27;20066;-79
2022/08/16 01:28:59;;;;;;;10.23;7.22;;;21.70;99.90;;;;;;5109877;27;20051;-79
2022/08/16 01:31:25;;;;;;;18.42;16.52;;;21.60;99.90;;;;;;5118491;27;20117;-79
2022/08/16 01:33:51;;;;;;;16.63;14.93;;;21.60;99.90;;;;;;5104223;27;20070;-79
2022/08/16 01:36:17;;;;;;;15.90;13.82;;;21.60;99.90;;;;;;5098884;27;20042;-79
2022/08/16 01:38:46;;;;;;;14.65;13.23;;;21.50;99.90;;;;;;5115307;27;20050;-79
2022/08/16 01:41:22;;;;;;;12.02;10.25;;;21.40;99.90;;;;;;5121389;27;20038;-79
2022/08/16 01:43:49;;;;;;;15.98;14.38;;;21.40;99.90;;;;;;5119007;27;20031;-79
2022/08/16 01:46:35;;;;;;;20.27;18.35;;;21.30;99.90;;;;;;5109680;27;20030;-79
2022/08/16 01:49:08;;;;;;;16.27;14.63;;;21.30;99.90;;;;;;5138119;27;20390;-79
2022/08/16 01:51:35;;;;;;;17.65;15.80;;;21.20;99.90;;;;;;5120257;27;20043;-79
2022/08/16 01:54:02;;;;;;;22.02;19.80;;;21.20;99.90;;;;;;5110668;27;20068;-79
2022/08/16 01:56:28;;;;;;;14.77;12.73;;;21.20;99.90;;;;;;5138168;27;20550;-79
2022/08/16 01:58:57;;;;;;;17.45;15.63;;;21.10;99.90;;;;;;5107390;27;20544;-79
2022/08/16 02:01:23;;;;;;;16.58;14.88;;;21.10;99.90;;;;;;5136775;27;20076;-79
2022/08/16 02:03:50;;;;;;;18.23;16.50;;;21.20;99.90;;;;;;5091221;27;20039;-79
2022/08/16 02:06:16;;;;;;;12.90;11.60;;;21.20;99.90;;;;;;5138046;27;20118;-79
2022/08/16 02:08:42;;;;;;;12.25;10.95;;;21.20;99.90;;;;;;5128193;27;20071;-79
2022/08/16 02:11:08;;;;;;;14.23;11.88;;;21.20;99.90;;;;;;5100568;27;20079;-79
2022/08/16 02:13:36;;;;;;;15.30;13.70;;;21.20;99.90;;;;;;5097746;27;20043;-79
2022/08/16 02:16:04;;;;;;;11.32;10.20;;;21.20;99.90;;;;;;5120824;27;20070;-79
2022/08/16 02:18:29;;;;;;;12.50;10.52;;;21.20;99.90;;;;;;5107070;27;20508;-79
2022/08/16 02:20:55;;;;;;;10.00;8.80;;;21.20;99.90;;;;;;5137823;27;20034;-79
2022/08/16 02:23:22;;;;;;;14.00;11.07;;;21.10;99.90;;;;;;5137415;27;20042;-78
2022/08/16 02:25:48;;;;;;;16.02;14.32;;;21.10;99.90;;;;;;5103588;27;20477;-78
2022/08/16 02:28:15;;;;;;;15.02;13.25;;;21.10;99.90;;;;;;5137335;27;20046;-78
2022/08/16 02:30:41;;;;;;;17.05;14.98;;;21.10;99.90;;;;;;5137687;27;20118;-78
2022/08/16 02:33:08;;;;;;;18.60;16.70;;;21.10;99.90;;;;;;5100073;27;20131;-78
2022/08/16 02:35:35;;;;;;;18.25;16.20;;;21.10;99.90;;;;;;5085769;27;20057;-78
2022/08/16 02:38:01;;;;;;;20.30;17.10;;;20.90;99.90;;;;;;5112701;27;20039;-78
2022/08/16 02:40:27;;;;;;;12.30;10.27;;;20.80;99.90;;;;;;5137431;27;20037;-78
2022/08/16 02:42:53;;;;;;;15.35;13.75;;;20.70;99.90;;;;;;5120362;27;20046;-78
2022/08/16 02:45:22;;;;;;;10.88;9.27;;;20.70;99.90;;;;;;5102679;27;20500;-78
2022/08/16 02:47:48;;;;;;;19.63;17.65;;;20.70;99.90;;;;;;5137591;27;20484;-78
2022/08/16 02:50:14;;;;;;;12.05;10.75;;;20.60;99.90;;;;;;5137388;27;20078;-79
2022/08/16 02:52:40;;;;;;;10.85;9.55;;;20.70;99.90;;;;;;5088877;27;20100;-79
2022/08/16 02:55:07;;;;;;;11.00;9.05;;;20.70;99.90;;;;;;5120019;27;20053;-79
2022/08/16 02:57:33;;;;;;;11.07;9.35;;;20.70;99.90;;;;;;5099381;27;20121;-79
2022/08/16 02:59:59;;;;;;;15.15;13.13;;;20.70;99.90;;;;;;5116476;27;20035;-79
2022/08/16 03:02:25;;;;;;;11.52;9.45;;;20.70;99.90;;;;;;5127957;27;20481;-79
2022/08/16 03:04:51;;;;;;;15.15;13.43;;;20.70;99.90;;;;;;5136646;27;20054;-79
2022/08/16 03:07:18;;;;;;;14.77;13.13;;;20.80;99.90;;;;;;5136788;27;20068;-79
2022/08/16 03:09:44;;;;;;;19.95;17.35;;;20.80;99.90;;;;;;5136907;27;20504;-79
2022/08/16 03:12:10;;;;;;;11.73;10.05;;;20.80;99.90;;;;;;5120017;27;20034;-79
2022/08/16 03:14:36;;;;;;;11.88;10.40;;;20.70;99.90;;;;;;5119591;27;20099;-79
2022/08/16 03:17:03;;;;;;;11.93;9.50;;;20.70;99.90;;;;;;5099794;27;20122;-79
2022/08/16 03:19:31;;;;;;;12.85;11.18;;;20.70;99.90;;;;;;5116150;27;20035;-79
2022/08/16 03:21:57;;;;;;;11.95;9.43;;;20.70;99.90;;;;;;5117152;27;20043;-78
2022/08/16 03:24:23;;;;;;;11.50;10.10;;;20.70;99.90;;;;;;5136835;27;20473;-78
2022/08/16 03:26:49;;;;;;;10.43;9.25;;;20.70;99.90;;;;;;5136441;27;20055;-78
2022/08/16 03:29:15;;;;;;;11.32;10.00;;;20.70;99.90;;;;;;5102665;27;20497;-78
2022/08/16 03:31:42;;;;;;;12.90;10.27;;;20.70;99.90;;;;;;5098994;27;20051;-78
2022/08/16 03:34:07;;;;;;;12.43;10.70;;;20.70;99.90;;;;;;5110682;27;20039;-78
2022/08/16 03:36:33;;;;;;;13.13;9.98;;;20.60;99.90;;;;;;5127835;27;20038;-78
2022/08/16 03:38:59;;;;;;;14.18;12.77;;;20.60;99.90;;;;;;5102631;27;20052;-78
2022/08/16 03:41:25;;;;;;;11.07;9.73;;;20.60;99.90;;;;;;5124019;27;20034;-78
2022/08/16 03:43:53;;;;;;;10.35;9.13;;;20.60;99.90;;;;;;5098982;27;20156;-78
2022/08/16 03:46:21;;;;;;;12.50;10.95;;;20.60;99.90;;;;;;5085438;27;20054;-78
2022/08/16 03:48:48;;;;;;;11.13;9.23;;;20.60;99.90;;;;;;5099234;28;20043;-78
2022/08/16 03:51:14;;;;;;;12.25;9.73;;;20.50;99.90;;;;;;5118327;27;20122;-78
2022/08/16 03:53:41;;;;;;;11.13;9.45;;;20.50;99.90;;;;;;5110086;28;20050;-78
2022/08/16 03:56:08;;;;;;;11.82;9.60;;;20.50;99.90;;;;;;5113965;27;20086;-78
2022/08/16 03:58:35;;;;;;;11.13;8.98;;;20.50;99.90;;;;;;5128721;28;20079;-78
2022/08/16 04:01:00;;;;;;;10.65;9.55;;;20.50;99.90;;;;;;5082053;28;20070;-78
2022/08/16 04:03:27;;;;;;;11.55;9.23;;;20.50;99.90;;;;;;5087141;27;20038;-78
2022/08/16 04:05:53;;;;;;;13.57;10.40;;;20.50;99.90;;;;;;5099022;27;20053;-78
2022/08/16 04:08:20;;;;;;;12.60;10.07;;;20.50;99.90;;;;;;5115236;28;20047;-79
2022/08/16 04:10:47;;;;;;;11.05;9.85;;;20.50;99.90;;;;;;5115180;27;20145;-79
2022/08/16 04:13:13;;;;;;;11.05;9.88;;;20.50;99.90;;;;;;5110395;27;20050;-79
2022/08/16 04:15:39;;;;;;;16.90;14.95;;;20.50;99.90;;;;;;5103050;27;20058;-78
2022/08/16 04:18:05;;;;;;;13.02;11.50;;;20.40;99.90;;;;;;5107927;27;20103;-78
2022/08/16 04:20:32;;;;;;;12.45;11.15;;;20.40;99.90;;;;;;5122939;27;20030;-78
2022/08/16 04:22:58;;;;;;;12.70;11.40;;;20.40;99.90;;;;;;5122770;27;20045;-78
2022/08/16 04:25:24;;;;;;;10.95;9.75;;;20.40;99.90;;;;;;5113266;27;20035;-78
2022/08/16 04:27:50;;;;;;;14.27;12.27;;;20.40;99.90;;;;;;5134137;27;20049;-78
2022/08/16 04:30:18;;;;;;;11.32;9.32;;;20.40;99.90;;;;;;5152739;27;20057;-78
2022/08/16 04:32:44;;;;;;;15.38;12.55;;;20.40;99.90;;;;;;5125715;27;20070;-78
2022/08/16 04:35:15;;;;;;;19.02;17.00;;;20.30;99.90;;;;;;5102167;27;20078;-78
2022/08/16 04:37:45;;;;;;;14.48;11.43;;;20.20;99.90;;;;;;5132211;27;20473;-78
2022/08/16 04:40:11;;;;;;;12.77;10.40;;;20.10;99.90;;;;;;5122452;27;20039;-78
2022/08/16 04:42:39;;;;;;;12.88;10.20;;;20.10;99.90;;;;;;5139775;27;20056;-78
2022/08/16 04:45:10;;;;;;;12.45;10.00;;;20.00;99.90;;;;;;5121836;27;20039;-78
2022/08/16 04:47:36;;;;;;;11.35;9.93;;;20.10;99.90;;;;;;5101895;27;20047;-78
2022/08/16 04:50:12;;;;;;;12.88;11.20;;;20.10;99.90;;;;;;5101954;27;20073;-78
2022/08/16 04:52:38;;;;;;;11.80;10.48;;;20.10;99.90;;;;;;5116249;27;20053;-79
2022/08/16 04:55:08;;;;;;;12.05;10.73;;;20.10;99.90;;;;;;5119178;27;20027;-79
2022/08/16 04:57:34;;;;;;;11.85;10.45;;;20.10;99.90;;;;;;5132452;27;20047;-79
2022/08/16 05:00:00;;;;;;;10.60;9.43;;;20.10;99.90;;;;;;5125170;27;20457;-79
2022/08/16 05:02:26;;;;;;;12.07;10.20;;;20.00;99.90;;;;;;5127843;27;20104;-79
2022/08/16 05:04:51;;;;;;;11.52;10.32;;;20.10;99.90;;;;;;5085050;27;20031;-79
2022/08/16 05:07:17;;;;;;;20.40;18.35;;;20.10;99.90;;;;;;5116342;27;20045;-78
2022/08/16 05:09:43;;;;;;;21.45;19.25;;;20.10;99.90;;;;;;5115415;27;20042;-78
2022/08/16 05:12:08;;;;;;;14.38;12.98;;;20.10;99.90;;;;;;5114292;27;20047;-78
2022/08/16 05:14:34;;;;;;;24.67;22.17;;;20.00;99.90;;;;;;5129074;27;20527;-78
2022/08/16 05:17:00;;;;;;;21.05;18.88;;;20.00;99.90;;;;;;5160087;27;20071;-78
2022/08/16 05:19:25;;;;;;;19.52;17.52;;;20.00;99.90;;;;;;5088127;27;20035;-78
2022/08/16 05:21:51;;;;;;;18.27;16.40;;;20.00;99.90;;;;;;5109875;27;20042;-78
2022/08/16 05:24:17;;;;;;;18.35;16.58;;;20.00;99.90;;;;;;5120614;27;20430;-79
2022/08/16 05:26:43;;;;;;;29.23;26.30;;;20.00;99.90;;;;;;5104826;27;20053;-79
2022/08/16 05:29:09;;;;;;;20.77;17.42;;;20.00;99.90;;;;;;5121871;27;20031;-79
2022/08/16 05:31:34;;;;;;;31.33;28.15;;;20.00;99.90;;;;;;5101260;27;20031;-79
2022/08/16 05:34:02;;;;;;;26.25;23.55;;;19.90;99.90;;;;;;5074810;27;20043;-79
2022/08/16 05:36:28;;;;;;;27.80;24.90;;;20.00;99.90;;;;;;5116011;27;20473;-79
2022/08/16 05:38:54;;;;;;;27.77;24.95;;;20.00;99.90;;;;;;5092200;27;20118;-79
2022/08/16 05:41:20;;;;;;;27.90;24.98;;;20.10;99.90;;;;;;5110568;27;20481;-79
2022/08/16 05:43:46;;;;;;;27.88;25.20;;;20.30;99.90;;;;;;5128257;27;20037;-79
2022/08/16 05:46:16;;;;;;;27.67;24.88;;;20.40;99.90;;;;;;5116770;27;20490;-79
2022/08/16 05:48:43;;;;;;;25.27;22.77;;;20.50;99.90;;;;;;5101890;27;20397;-79
2022/08/16 05:51:09;;;;;;;25.92;23.23;;;20.70;99.90;;;;;;5118947;27;20046;-79
2022/08/16 05:53:34;;;;;;;23.80;21.45;;;20.90;99.90;;;;;;5108517;27;20383;-79
2022/08/16 05:56:00;;;;;;;22.88;20.65;;;21.20;99.90;;;;;;5117869;27;20042;-79
2022/08/16 05:58:26;;;;;;;22.52;20.20;;;21.60;99.90;;;;;;5089665;27;20039;-79
2022/08/16 06:00:52;;;;;;;21.30;18.90;;;22.10;99.90;;;;;;5121094;27;20034;-79
2022/08/16 06:03:17;;;;;;;19.38;17.30;;;22.40;99.90;;;;;;5138153;27;20038;-79
2022/08/16 06:05:43;;;;;;;18.92;17.00;;;22.70;99.90;;;;;;5116358;27;20034;-79
2022/08/16 06:08:09;;;;;;;18.70;16.70;;;22.90;99.90;;;;;;5106012;27;20061;-79
2022/08/16 06:10:34;;;;;;;18.13;16.33;;;23.10;99.90;;;;;;5128767;27;20405;-79
2022/08/16 06:13:00;;;;;;;17.40;15.60;;;23.50;99.90;;;;;;5118111;27;20042;-79
2022/08/16 06:15:26;;;;;;;18.10;15.75;;;23.90;99.90;;;;;;5111282;27;20155;-79
2022/08/16 06:17:51;;;;;;;17.95;15.90;;;24.40;99.90;;;;;;5100000;27;20486;-79
2022/08/16 06:20:25;;;;;;;17.88;15.98;;;24.50;99.90;;;;;;5107055;27;20030;-79
2022/08/16 06:22:54;;;;;;;16.75;15.00;;;24.90;99.70;;;;;;5124169;27;20030;-79
2022/08/16 06:25:21;;;;;;;17.85;13.55;;;25.40;98.90;;;;;;5118936;27;20045;-79
2022/08/16 06:27:47;;;;;;;16.23;14.25;;;25.80;97.80;;;;;;5125931;27;20425;-79
2022/08/16 06:30:13;;;;;;;16.98;15.05;;;26.20;96.80;;;;;;5117245;27;20507;-79
2022/08/16 06:32:40;;;;;;;18.58;16.15;;;26.10;95.60;;;;;;5117281;27;20598;-79
2022/08/16 06:35:07;;;;;;;18.05;15.95;;;26.20;95.30;;;;;;5130563;27;20043;-79
2022/08/16 06:37:32;;;;;;;16.33;13.98;;;26.20;94.20;;;;;;5121843;27;20030;-78
2022/08/16 06:39:58;;;;;;;18.40;14.50;;;26.20;95.20;;;;;;5127050;27;20027;-79
2022/08/16 06:42:24;;;;;;;16.77;15.00;;;26.50;94.80;;;;;;5126559;27;20154;-79
2022/08/16 06:44:50;;;;;;;17.75;15.02;;;26.80;93.70;;;;;;5136946;27;20026;-79
2022/08/16 06:47:15;;;;;;;17.80;15.90;;;26.40;93.30;;;;;;5106049;27;20081;-79
2022/08/16 06:49:41;;;;;;;17.67;15.73;;;26.40;93.70;;;;;;5117751;27;20042;-79
2022/08/16 06:52:07;;;;;;;16.85;14.73;;;26.40;93.40;;;;;;5129971;27;20048;-79
2022/08/16 06:54:34;;;;;;;16.45;13.95;;;26.20;93.50;;;;;;5112276;27;20059;-79
2022/08/16 06:57:00;;;;;;;14.70;12.88;;;26.00;93.70;;;;;;5125374;27;20049;-79
2022/08/16 06:59:26;;;;;;;14.15;12.75;;;25.90;94.00;;;;;;5132936;27;20030;-79
2022/08/16 07:01:53;;;;;;;14.55;13.02;;;26.20;94.20;;;;;;5119095;27;20035;-79
2022/08/16 07:04:19;;;;;;;15.48;13.32;;;26.40;93.40;;;;;;5103391;27;20069;-79
2022/08/16 07:06:44;;;;;;;15.38;13.77;;;26.50;93.10;;;;;;5099529;27;20050;-79
2022/08/16 07:09:12;;;;;;;15.88;14.15;;;26.80;92.50;;;;;;5131239;27;20117;-79
2022/08/16 07:11:38;;;;;;;16.50;13.20;;;27.00;92.20;;;;;;5138003;27;20039;-80
2022/08/16 07:14:03;;;;;;;15.60;12.73;;;27.20;91.90;;;;;;5137639;27;20114;-79
2022/08/16 07:16:29;;;;;;;13.35;11.95;;;27.40;91.40;;;;;;5106351;27;20038;-79
2022/08/16 07:18:56;;;;;;;14.48;11.30;;;27.40;90.50;;;;;;5110640;27;20035;-78
2022/08/16 07:21:22;;;;;;;14.32;11.00;;;27.80;90.50;;;;;;5121754;27;20090;-79
2022/08/16 07:23:48;;;;;;;16.05;14.07;;;28.20;89.70;;;;;;5137500;27;20035;-79
2022/08/16 07:26:19;;;;;;;15.68;13.23;;;28.10;86.80;;;;;;5100984;27;20429;-79
2022/08/16 07:28:45;;;;;;;16.60;13.93;;;28.00;86.40;;;;;;5119684;27;20071;-79
2022/08/16 07:31:11;;;;;;;14.63;12.73;;;27.70;86.40;;;;;;5116191;27;20590;-79
2022/08/16 07:33:38;;;;;;;13.82;12.35;;;27.40;87.10;;;;;;5134032;27;20153;-79
2022/08/16 07:36:06;;;;;;;15.32;11.77;;;27.00;87.80;;;;;;5157791;27;20046;-79
2022/08/16 07:38:32;;;;;;;15.40;13.15;;;26.90;89.60;;;;;;5135667;27;20552;-78
2022/08/16 07:40:58;;;;;;;14.65;13.02;;;27.10;90.20;;;;;;5131722;27;20090;-79
2022/08/16 07:43:25;;;;;;;15.93;13.48;;;27.40;90.10;;;;;;5107232;27;20110;-79
2022/08/16 07:45:51;;;;;;;14.30;12.80;;;27.50;89.40;;;;;;5118388;27;20038;-79
2022/08/16 07:48:17;;;;;;;16.27;13.85;;;27.80;88.70;;;;;;5084662;27;20073;-79
2022/08/16 07:50:44;;;;;;;17.65;13.80;;;28.00;87.70;;;;;;5115679;28;20100;-79
2022/08/16 07:53:10;;;;;;;15.02;12.30;;;28.10;86.70;;;;;;5120183;27;20080;-79
2022/08/16 07:55:36;;;;;;;15.70;12.27;;;28.30;86.90;;;;;;5117486;27;20463;-79
2022/08/16 07:58:03;;;;;;;16.38;13.82;;;28.50;85.60;;;;;;5114172;27;20121;-79
2022/08/16 08:00:30;;;;;;;18.73;14.25;;;28.60;85.00;;;;;;5100781;28;20039;-79
2022/08/16 08:02:57;;;;;;;16.17;14.38;;;28.70;84.40;;;;;;5107808;27;20043;-80
2022/08/16 08:05:24;;;;;;;14.65;12.95;;;28.90;84.00;;;;;;5117988;27;20039;-80
2022/08/16 08:07:52;;;;;;;17.02;14.68;;;28.90;82.80;;;;;;5101175;27;20047;-79
2022/08/16 08:10:19;;;;;;;14.77;13.27;;;28.80;81.80;;;;;;5117723;27;20039;-79
2022/08/16 08:12:47;;;;;;;15.00;12.98;;;29.00;81.80;;;;;;5111205;27;20035;-79
2022/08/16 08:15:14;;;;;;;14.05;12.55;;;29.10;80.70;;;;;;5108698;27;20125;-79
2022/08/16 08:17:41;;;;;;;17.80;14.77;;;29.00;81.30;;;;;;5126376;27;20489;-79
2022/08/16 08:20:09;;;;;;;14.55;12.95;;;29.10;79.40;;;;;;5113823;27;20031;-79
2022/08/16 08:22:37;;;;;;;14.13;11.65;;;29.00;80.20;;;;;;5107969;27;20070;-79
2022/08/16 08:25:03;;;;;;;14.98;13.23;;;29.30;80.60;;;;;;5130340;27;20177;-79
2022/08/16 08:27:29;;;;;;;13.57;11.65;;;29.50;78.30;;;;;;5099190;27;20129;-79
2022/08/16 08:29:55;;;;;;;13.25;11.85;;;29.70;78.50;;;;;;5111535;27;20075;-79
2022/08/16 08:32:20;;;;;;;14.45;12.82;;;29.80;76.40;;;;;;5082286;27;20082;-79
2022/08/16 08:34:47;;;;;;;14.38;11.32;;;29.70;75.60;;;;;;5114842;27;20035;-79
2022/08/16 08:37:13;;;;;;;13.20;10.80;;;29.70;76.10;;;;;;5107102;27;20042;-79
2022/08/16 08:39:40;;;;;;;16.10;11.45;;;29.80;75.80;;;;;;5114035;27;20043;-79
2022/08/16 08:42:07;;;;;;;15.15;12.43;;;29.90;75.30;;;;;;5118088;27;20091;-79
2022/08/16 08:44:33;;;;;;;13.70;11.63;;;29.80;73.50;;;;;;5047568;28;20078;-79
2022/08/16 08:47:05;;;;;;;13.85;11.63;;;29.70;74.10;;;;;;5115077;27;20473;-79
2022/08/16 08:49:32;;;;;;;14.80;11.73;;;29.80;73.80;;;;;;5133018;27;20170;-79
2022/08/16 08:51:57;;;;;;;14.88;11.30;;;29.80;74.40;;;;;;5114802;27;20031;-79
2022/08/16 08:54:25;;;;;;;12.98;11.30;;;30.00;73.10;;;;;;5096454;27;20050;-79
2022/08/16 08:56:54;;;;;;;14.27;10.52;;;30.10;72.60;;;;;;5134347;27;20053;-79
2022/08/16 08:59:19;;;;;;;12.07;10.18;;;30.10;71.70;;;;;;5115533;27;20042;-79
2022/08/16 09:01:46;;;;;;;13.27;10.55;;;30.10;71.40;;;;;;5135621;27;20035;-79
2022/08/16 09:04:13;;;;;;;13.60;10.55;;;30.10;70.50;;;;;;5101163;27;20039;-79
2022/08/16 09:06:40;;;;;;;13.88;10.60;;;30.00;70.30;;;;;;5118042;27;20035;-79
2022/08/16 09:09:08;;;;;;;14.60;11.25;;;30.10;69.30;;;;;;5136947;27;20042;-79
2022/08/16 09:11:35;;;;;;;11.98;10.52;;;29.90;69.70;;;;;;5120007;27;20393;-79
2022/08/16 09:14:01;;;;;;;12.27;9.02;;;29.80;69.30;;;;;;5121606;27;20049;-79
2022/08/16 09:16:26;;;;;;;12.25;10.18;;;30.10;70.00;;;;;;5120934;27;20121;-79
2022/08/16 09:18:52;;;;;;;13.55;10.90;;;30.30;69.40;;;;;;5103720;27;20371;-79
2022/08/16 09:21:19;;;;;;;15.02;10.85;;;30.50;69.00;;;;;;5102865;27;20073;-79
2022/08/16 09:23:45;;;;;;;14.02;11.57;;;30.60;67.60;;;;;;5118347;27;20038;-79
2022/08/16 09:26:14;;;;;;;14.65;11.25;;;30.60;67.20;;;;;;5097599;27;20402;-79
2022/08/16 09:28:41;;;;;;;13.80;12.30;;;30.50;67.20;;;;;;5115542;27;20506;-79
2022/08/16 09:31:08;;;;;;;12.55;9.23;;;30.50;66.80;;;;;;5124448;27;20039;-79
2022/08/16 09:33:34;;;;;;;14.10;9.95;;;30.60;67.50;;;;;;5127075;27;20076;-79
2022/08/16 09:36:00;;;;;;;14.30;10.55;;;30.70;66.10;;;;;;5109565;27;20039;-79
2022/08/16 09:38:26;;;;;;;12.00;9.90;;;30.80;66.70;;;;;;5133792;27;20074;-79
2022/08/16 09:40:56;;;;;;;14.43;9.55;;;30.90;66.20;;;;;;5092728;28;20119;-79
2022/08/16 09:43:22;;;;;;;11.75;8.60;;;31.00;65.90;;;;;;5127072;27;20031;-79
2022/08/16 09:45:48;;;;;;;12.45;10.38;;;31.20;64.80;;;;;;5131241;27;20088;-79
2022/08/16 09:48:14;;;;;;;14.05;10.23;;;31.30;64.70;;;;;;5107146;27;20485;-79
2022/08/16 09:50:42;;;;;;;11.13;8.43;;;31.20;63.80;;;;;;5120390;27;20035;-79
2022/08/16 09:53:17;;;;;;;10.60;8.20;;;31.30;62.90;;;;;;5121714;27;20047;-79
2022/08/16 09:55:48;;;;;;;11.55;9.13;;;31.40;61.70;;;;;;5124838;27;20051;-79
2022/08/16 09:58:13;;;;;;;12.38;8.80;;;31.20;61.30;;;;;;5128313;27;20130;-79
2022/08/16 10:00:39;;;;;;;11.35;7.53;;;31.10;61.40;;;;;;5099056;27;20099;-79
2022/08/16 10:03:05;;;;;;;11.88;8.90;;;31.20;61.00;;;;;;5124698;27;20039;-79
2022/08/16 10:05:35;;;;;;;8.65;6.20;;;31.00;60.90;;;;;;5073532;28;20027;-79
2022/08/16 10:08:06;;;;;;;8.77;6.40;;;31.10;59.60;;;;;;5126075;27;20490;-79
2022/08/16 10:10:34;;;;;;;9.23;7.05;;;31.20;59.60;;;;;;5095612;27;20046;-79
2022/08/16 10:13:13;;;;;;;8.90;7.18;;;31.30;59.40;;;;;;5114154;27;20114;-79
2022/08/16 10:15:46;;;;;;;7.97;5.30;;;31.40;58.40;;;;;;5115969;27;20053;-79
2022/08/16 10:18:13;;;;;;;9.90;5.68;;;31.30;57.10;;;;;;5114876;27;20039;-79
2022/08/16 10:20:43;;;;;;;8.88;4.90;;;31.40;57.10;;;;;;5113542;27;20494;-79
2022/08/16 10:23:12;;;;;;;9.10;5.28;;;31.50;56.00;;;;;;5132923;27;20083;-79
2022/08/16 10:25:40;;;;;;;7.78;4.78;;;31.80;55.60;;;;;;5116029;27;20079;-79
2022/08/16 10:28:07;;;;;;;9.32;5.38;;;31.80;54.20;;;;;;5133365;27;20059;-79
2022/08/16 10:30:34;;;;;;;9.38;4.50;;;32.00;54.20;;;;;;5111755;27;20073;-79
2022/08/16 10:33:00;;;;;;;8.02;5.22;;;32.20;53.20;;;;;;5121559;27;20082;-79
2022/08/16 10:35:26;;;;;;;8.20;5.80;;;32.30;53.50;;;;;;5126274;27;20543;-79
2022/08/16 10:37:52;;;;;;;6.97;3.50;;;32.40;53.40;;;;;;5110380;27;20039;-79
2022/08/16 10:40:20;;;;;;;6.07;4.10;;;32.50;50.80;;;;;;5127630;27;20034;-79
2022/08/16 10:42:48;;;;;;;9.50;5.00;;;32.60;49.80;;;;;;5120423;27;20137;-79
2022/08/16 10:45:15;;;;;;;7.63;4.53;;;32.70;50.50;;;;;;5107946;27;20447;-79
2022/08/16 10:47:41;;;;;;;8.23;4.68;;;32.80;49.90;;;;;;5120220;27;20036;-80
2022/08/16 10:50:08;;;;;;;7.05;4.13;;;32.70;48.80;;;;;;5072800;27;20046;-79
2022/08/16 10:52:33;;;;;;;9.18;5.03;;;32.70;49.90;;;;;;5106919;28;20062;-79
2022/08/16 10:55:01;;;;;;;9.70;5.32;;;32.70;49.60;;;;;;5102894;27;20043;-79
2022/08/16 10:57:27;;;;;;;7.95;4.80;;;32.70;49.60;;;;;;5105756;27;20050;-79
2022/08/16 10:59:54;;;;;;;8.43;5.30;;;32.60;50.10;;;;;;5108683;27;20438;-79
2022/08/16 11:02:21;;;;;;;8.70;5.38;;;32.50;50.00;;;;;;5115354;27;20477;-80
2022/08/16 11:04:47;;;;;;;9.02;5.40;;;32.60;49.50;;;;;;5124815;27;20035;-80
2022/08/16 11:07:13;;;;;;;7.90;4.90;;;32.60;49.40;;;;;;5128067;27;20070;-80
2022/08/16 11:09:39;;;;;;;7.85;5.22;;;32.70;49.80;;;;;;5124343;27;20160;-80
2022/08/16 11:12:05;;;;;;;8.05;4.57;;;32.80;50.10;;;;;;5091979;28;20031;-80
2022/08/16 11:14:33;;;;;;;7.97;4.80;;;32.80;48.40;;;;;;5125718;27;20100;-80
2022/08/16 11:17:01;;;;;;;7.82;4.50;;;32.80;49.10;;;;;;5111664;27;20042;-80
2022/08/16 11:19:28;;;;;;;7.00;4.07;;;32.90;47.80;;;;;;5102037;28;20042;-80
2022/08/16 11:21:55;;;;;;;6.65;3.88;;;32.90;47.90;;;;;;5128927;27;20043;-80
2022/08/16 11:24:21;;;;;;;6.72;3.70;;;32.90;46.50;;;;;;5097478;28;20044;-80
2022/08/16 11:26:47;;;;;;;6.40;3.50;;;32.90;46.40;;;;;;5117757;27;20063;-80
2022/08/16 11:29:13;;;;;;;6.22;3.90;;;33.00;46.90;;;;;;5125261;27;20207;-80
2022/08/16 11:31:39;;;;;;;7.93;4.32;;;33.00;46.20;;;;;;5119421;27;20114;-80
2022/08/16 11:34:05;;;;;;;7.22;4.10;;;33.10;46.50;;;;;;5120510;27;20118;-80
2022/08/16 11:36:31;;;;;;;9.48;4.30;;;33.10;46.70;;;;;;5129759;27;20172;-80
2022/08/16 11:38:58;;;;;;;7.57;4.20;;;33.10;46.20;;;;;;5105831;28;20090;-80
2022/08/16 11:41:25;;;;;;;6.32;3.20;;;32.90;45.70;;;;;;5128381;27;20035;-80
2022/08/16 11:43:51;;;;;;;6.85;3.25;;;32.70;43.90;;;;;;5132355;27;20039;-80
2022/08/16 11:46:19;;;;;;;9.27;3.50;;;32.70;43.80;;;;;;5132939;27;20046;-80
2022/08/16 11:48:45;;;;;;;7.57;4.20;;;32.90;44.40;;;;;;5115471;27;20075;-80
2022/08/16 11:51:11;;;;;;;5.85;3.60;;;32.90;44.90;;;;;;5109246;27;20428;-80
2022/08/16 11:53:38;;;;;;;7.63;4.18;;;32.90;45.00;;;;;;5102776;28;20569;-80
2022/08/16 11:56:04;;;;;;;8.48;4.20;;;32.90;45.20;;;;;;5101316;28;20104;-80
2022/08/16 11:58:30;;;;;;;6.80;4.20;;;32.80;44.70;;;;;;5096890;28;20043;-80
2022/08/16 12:00:57;;;;;;;7.10;3.80;;;32.70;45.00;;;;;;5132343;28;20107;-80
2022/08/16 12:03:30;;;;;;;6.13;3.67;;;32.80;44.70;;;;;;5109436;28;20078;-80
2022/08/16 12:05:56;;;;;;;7.30;4.15;;;32.80;43.40;;;;;;5115363;28;20031;-80
2022/08/16 12:08:23;;;;;;;6.70;3.78;;;32.70;43.40;;;;;;5132761;28;20573;-80
2022/08/16 12:10:49;;;;;;;6.97;3.60;;;32.80;43.80;;;;;;5098377;28;20490;-80
2022/08/16 12:13:14;;;;;;;7.35;3.83;;;32.80;44.40;;;;;;5107962;28;20050;-80
2022/08/16 12:15:41;;;;;;;7.15;4.45;;;32.80;43.50;;;;;;5093159;28;20047;-80
2022/08/16 12:18:08;;;;;;;8.07;4.38;;;32.80;44.00;;;;;;5101807;28;20567;-80
2022/08/16 12:20:37;;;;;;;7.10;4.47;;;32.60;43.70;;;;;;5132160;28;20102;-80
2022/08/16 12:23:04;;;;;;;11.30;3.70;;;32.60;44.20;;;;;;5131810;28;20122;-80
2022/08/16 12:25:31;;;;;;;6.57;3.60;;;32.70;44.20;;;;;;5132658;28;20551;-80
2022/08/16 12:27:58;;;;;;;6.63;3.45;;;32.70;42.50;;;;;;5097185;28;20193;-79
2022/08/16 12:30:27;;;;;;;8.13;3.78;;;32.70;43.30;;;;;;5114984;28;20043;-79
2022/08/16 12:32:55;;;;;;;6.85;3.45;;;32.70;43.90;;;;;;5105602;27;20043;-79